Time;durP1;ratioP1;P1;durP2;ratioP2;P2;SDS_P1;SDS_P2;PMS_P1;PMS_P2;Temp;Humidity;BMP_temperature;BMP_pressure;BME280_temperature;BME280_humidity;BME280_pressure;Samples;Min_cycle;Max_cycle;Signal;HPM_P1;HPM_P2
2022/08/14 00:09:30;;;;;;;0.20;0.00;;;27.00;99.90;;;;;;26172774;22;20215;-67
2022/08/14 00:19:35;;;;;;;0.20;0.00;;;27.10;99.90;;;;;;26170922;22;20163;-70
2022/08/14 00:29:41;;;;;;;0.20;0.00;;;27.40;99.90;;;;;;26119929;22;20210;-68
2022/08/14 00:39:45;;;;;;;0.20;0.00;;;27.40;99.90;;;;;;26172910;22;20163;-68
2022/08/14 00:49:51;;;;;;;0.20;0.10;;;27.20;99.90;;;;;;26171670;22;20918;-68
2022/08/14 00:59:56;;;;;;;0.20;0.00;;;27.30;99.90;;;;;;26171026;22;20167;-67
2022/08/14 01:10:04;;;;;;;0.20;0.00;;;27.00;99.90;;;;;;26169462;22;20203;-69
2022/08/14 01:30:37;;;;;;;0.20;0.00;;;26.60;99.90;;;;;;26110919;22;20187;-69
2022/08/14 01:40:42;;;;;;;0.20;0.00;;;26.10;99.90;;;;;;26170396;22;20226;-69
2022/08/14 01:50:48;;;;;;;0.20;0.00;;;25.90;99.90;;;;;;26170927;22;20198;-68
2022/08/14 02:00:55;;;;;;;0.20;0.10;;;25.90;99.90;;;;;;26170363;22;20167;-68
2022/08/14 02:11:21;;;;;;;0.20;0.00;;;25.90;99.90;;;;;;26173391;22;20222;-68
2022/08/14 02:21:25;;;;;;;0.20;0.00;;;25.80;99.90;;;;;;26175530;22;20159;-68
2022/08/14 02:31:34;;;;;;;0.20;0.00;;;25.60;99.90;;;;;;26124251;22;20187;-69
2022/08/14 02:41:47;;;;;;;0.20;0.00;;;25.50;99.90;;;;;;26178464;22;20167;-69
2022/08/14 02:52:02;;;;;;;0.20;0.00;;;25.60;99.90;;;;;;26149697;22;20183;-69
2022/08/14 03:02:25;;;;;;;0.20;0.00;;;25.80;99.90;;;;;;26148950;22;21187;-69
2022/08/14 03:12:51;;;;;;;0.20;0.00;;;26.00;99.90;;;;;;26174949;22;20199;-69
2022/08/14 03:22:54;;;;;;;0.20;0.00;;;26.50;99.90;;;;;;26146929;22;20179;-71
2022/08/14 03:33:00;;;;;;;0.20;0.00;;;26.70;99.90;;;;;;26149101;22;20191;-69
2022/08/14 03:43:04;;;;;;;0.20;0.00;;;26.50;99.90;;;;;;26147092;22;20176;-68
2022/08/14 03:53:12;;;;;;;0.20;0.10;;;26.20;99.90;;;;;;26147473;22;20209;-68
2022/08/14 04:03:16;;;;;;;0.20;0.00;;;26.20;99.90;;;;;;26147364;22;20175;-69
2022/08/14 04:13:28;;;;;;;0.20;0.00;;;25.90;99.90;;;;;;26172406;22;20224;-67
2022/08/14 04:23:37;;;;;;;0.20;0.00;;;25.70;99.90;;;;;;26173327;22;20238;-69
2022/08/14 04:33:43;;;;;;;0.20;0.00;;;25.80;99.90;;;;;;26144788;22;20239;-70
2022/08/14 04:43:47;;;;;;;0.20;0.00;;;27.10;99.90;;;;;;26172035;22;20167;-69
2022/08/14 04:53:56;;;;;;;0.20;0.00;;;27.40;99.90;;;;;;26144567;22;20255;-68
2022/08/14 05:04:00;;;;;;;0.20;0.00;;;28.20;99.90;;;;;;26143266;22;20189;-68
2022/08/14 05:14:06;;;;;;;0.20;0.00;;;28.40;99.90;;;;;;26144891;22;20208;-69
2022/08/14 05:24:29;;;;;;;0.20;0.03;;;28.90;99.90;;;;;;26168369;22;20167;-69
2022/08/14 05:34:36;;;;;;;0.20;0.00;;;28.40;99.90;;;;;;26144942;22;20271;-69
2022/08/14 05:44:39;;;;;;;0.20;0.00;;;28.80;99.90;;;;;;26172910;22;20174;-69
2022/08/14 05:54:49;;;;;;;0.20;0.00;;;28.60;99.90;;;;;;26179263;22;20255;-69
2022/08/14 06:04:53;;;;;;;0.20;0.00;;;28.40;99.90;;;;;;26151958;22;20186;-68
2022/08/14 06:15:02;;;;;;;0.20;0.00;;;28.50;99.90;;;;;;26176856;22;20229;-69
2022/08/14 06:25:12;;;;;;;0.20;0.00;;;29.20;99.90;;;;;;26177149;22;20159;-69
2022/08/14 06:35:21;;;;;;;0.20;0.00;;;29.60;99.90;;;;;;26176688;22;20180;-68
2022/08/14 06:45:25;;;;;;;0.20;0.00;;;29.50;99.90;;;;;;26176796;22;20151;-68
2022/08/14 06:55:31;;;;;;;0.20;0.00;;;30.60;99.90;;;;;;26174574;22;20180;-68
2022/08/14 07:05:48;;;;;;;0.20;0.00;;;30.90;99.90;;;;;;26175624;22;20204;-69
2022/08/14 07:16:04;;;;;;;0.20;0.00;;;30.90;99.90;;;;;;26147617;22;20424;-69
2022/08/14 07:26:09;;;;;;;0.20;0.00;;;30.60;99.90;;;;;;26148338;22;20195;-70
2022/08/14 07:36:18;;;;;;;0.20;0.00;;;29.80;99.90;;;;;;26148788;22;20271;-69
2022/08/14 07:46:33;;;;;;;0.20;0.00;;;30.60;99.90;;;;;;26174747;22;20170;-69
2022/08/14 07:56:41;;;;;;;0.20;0.00;;;31.60;99.90;;;;;;26172760;22;20193;-69
2022/08/14 08:06:51;;;;;;;0.20;0.00;;;31.40;99.90;;;;;;26144665;22;20250;-68
2022/08/14 08:16:57;;;;;;;0.20;0.00;;;31.70;99.90;;;;;;26143855;22;20191;-70
2022/08/14 08:27:01;;;;;;;0.20;0.00;;;31.00;99.90;;;;;;26172283;22;20293;-70
2022/08/14 08:37:07;;;;;;;0.20;0.00;;;31.80;99.90;;;;;;26171989;22;20195;-69
2022/08/14 08:47:11;;;;;;;0.20;0.00;;;31.80;99.90;;;;;;26170337;22;20202;-69
2022/08/14 08:57:16;;;;;;;0.20;0.00;;;31.10;99.90;;;;;;26170353;22;20178;-69
2022/08/14 09:07:26;;;;;;;0.20;0.00;;;31.60;99.90;;;;;;26140185;22;20198;-69
2022/08/14 09:17:32;;;;;;;0.20;0.00;;;32.30;99.90;;;;;;26143466;22;20565;-69
2022/08/14 09:27:37;;;;;;;0.20;0.00;;;33.10;99.90;;;;;;26167086;22;20183;-69
2022/08/14 09:37:55;;;;;;;0.20;0.00;;;32.90;99.90;;;;;;26167826;22;20174;-69
2022/08/14 09:47:59;;;;;;;0.20;0.00;;;33.30;99.90;;;;;;26142121;22;20194;-69
2022/08/14 09:58:11;;;;;;;0.20;0.00;;;33.70;99.90;;;;;;26168344;22;20201;-69
2022/08/14 10:08:25;;;;;;;0.20;0.00;;;33.70;99.90;;;;;;26166131;22;20199;-69
2022/08/14 10:18:32;;;;;;;0.20;0.00;;;34.50;99.90;;;;;;26139278;22;20156;-68
2022/08/14 10:28:42;;;;;;;0.20;0.00;;;35.50;99.90;;;;;;26166953;22;20179;-67
2022/08/14 10:39:15;;;;;;;0.20;0.00;;;35.50;99.90;;;;;;26145395;22;20171;-68
2022/08/14 10:49:20;;;;;;;0.20;0.00;;;33.20;99.90;;;;;;26170469;22;20182;-67
2022/08/14 10:59:27;;;;;;;0.20;0.00;;;32.30;99.90;;;;;;26146342;22;20167;-68
2022/08/14 11:09:33;;;;;;;0.20;0.00;;;32.00;99.90;;;;;;26171592;22;20206;-68
2022/08/14 11:19:39;;;;;;;0.20;0.00;;;32.50;99.90;;;;;;26173056;22;20182;-69
2022/08/14 11:29:44;;;;;;;0.20;0.00;;;32.60;99.90;;;;;;26170877;22;20224;-68
2022/08/14 11:39:56;;;;;;;0.20;0.00;;;33.00;99.90;;;;;;26141155;22;20163;-68
2022/08/14 11:50:11;;;;;;;0.20;0.00;;;33.60;99.90;;;;;;26170766;22;20183;-70
2022/08/14 12:00:17;;;;;;;0.20;0.00;;;34.30;99.90;;;;;;26168889;22;20167;-70
2022/08/14 12:10:22;;;;;;;0.20;0.00;;;34.70;99.90;;;;;;26169202;22;20207;-66
2022/08/14 12:20:42;;;;;;;0.20;0.00;;;35.10;99.90;;;;;;26167708;22;20189;-68
2022/08/14 12:30:54;;;;;;;0.20;0.00;;;35.60;99.90;;;;;;26140378;22;21009;-68
2022/08/14 12:41:05;;;;;;;0.20;0.00;;;35.60;99.90;;;;;;26142747;22;20209;-69
2022/08/14 12:51:18;;;;;;;0.20;0.00;;;36.50;99.90;;;;;;26167759;22;20231;-70
2022/08/14 13:01:27;;;;;;;0.20;0.00;;;37.30;99.90;;;;;;26166851;22;20170;-69
2022/08/14 13:11:38;;;;;;;0.20;0.00;;;37.90;99.90;;;;;;26139506;22;20210;-68
2022/08/14 13:21:46;;;;;;;0.20;0.00;;;38.10;99.90;;;;;;26166642;22;20156;-69
2022/08/14 13:32:09;;;;;;;0.20;0.00;;;38.10;99.90;;;;;;26139288;22;20183;-70
2022/08/14 13:42:19;;;;;;;0.20;0.00;;;37.40;99.90;;;;;;26137573;22;20182;-69
2022/08/14 13:52:25;;;;;;;0.20;0.00;;;37.40;99.90;;;;;;26167149;22;20187;-69
2022/08/14 14:02:51;;;;;;;0.20;0.00;;;38.60;99.90;;;;;;26166544;22;20198;-69
2022/08/14 14:12:57;;;;;;;0.20;0.00;;;37.50;99.90;;;;;;26173563;22;20191;-69
2022/08/14 14:23:04;;;;;;;0.20;0.00;;;37.30;99.90;;;;;;26176112;22;20164;-68
2022/08/14 14:33:14;;;;;;;0.20;0.00;;;37.70;99.90;;;;;;26124455;22;20206;-69
2022/08/14 14:43:43;;;;;;;0.20;0.00;;;35.20;99.90;;;;;;26147690;22;20174;-69
2022/08/14 14:53:47;;;;;;;0.20;0.15;;;35.20;99.90;;;;;;26174355;22;20188;-69
2022/08/14 15:03:53;;;;;;;0.20;0.00;;;35.10;99.90;;;;;;26169475;22;20194;-69
2022/08/14 15:13:59;;;;;;;0.20;0.00;;;34.90;99.90;;;;;;26174077;22;20204;-69
2022/08/14 15:24:05;;;;;;;0.20;0.00;;;34.10;99.90;;;;;;26173503;22;20164;-68
2022/08/14 15:34:12;;;;;;;0.20;0.00;;;34.10;99.90;;;;;;26170369;22;20194;-70
2022/08/14 15:44:37;;;;;;;0.20;0.00;;;33.60;99.90;;;;;;26171168;22;20168;-69
2022/08/14 15:55:02;;;;;;;0.20;0.00;;;32.00;99.90;;;;;;26120282;22;20183;-69
2022/08/14 16:05:08;;;;;;;0.20;0.00;;;32.30;99.90;;;;;;26171648;22;20219;-70
2022/08/14 16:15:12;;;;;;;0.20;0.00;;;32.10;99.90;;;;;;26168704;22;20206;-69
2022/08/14 16:25:21;;;;;;;0.20;0.00;;;31.00;99.90;;;;;;26169010;22;20168;-70
2022/08/14 16:35:39;;;;;;;0.20;0.00;;;30.60;99.90;;;;;;26138856;22;20191;-69
2022/08/14 16:46:00;;;;;;;0.20;0.00;;;30.70;99.90;;;;;;26139238;22;20159;-68
2022/08/14 16:56:13;;;;;;;0.20;0.00;;;30.90;99.90;;;;;;26167195;22;20183;-66
2022/08/14 17:06:42;;;;;;;0.20;0.00;;;30.80;99.90;;;;;;26142002;22;20183;-68
2022/08/14 17:16:54;;;;;;;0.20;0.00;;;30.50;99.90;;;;;;26166450;22;20229;-69
2022/08/14 17:27:00;;;;;;;0.20;0.00;;;30.30;99.90;;;;;;26165699;22;20189;-68
2022/08/14 17:37:06;;;;;;;0.20;0.00;;;31.50;99.90;;;;;;26161787;22;20179;-69
2022/08/14 17:47:28;;;;;;;0.20;0.00;;;31.50;99.90;;;;;;26165176;22;20192;-68
2022/08/14 17:57:38;;;;;;;0.20;0.00;;;30.10;99.90;;;;;;26140073;22;20201;-69
2022/08/14 18:07:50;;;;;;;0.25;0.25;;;30.00;99.90;;;;;;26165325;22;20183;-70
2022/08/14 18:18:14;;;;;;;0.20;0.00;;;29.40;99.90;;;;;;26164089;22;20206;-68
2022/08/14 18:28:26;;;;;;;0.20;0.00;;;29.20;99.90;;;;;;26164499;22;20179;-68
2022/08/14 18:39:30;;;;;;;0.20;0.00;;;29.20;99.90;;;;;;26136482;22;20178;-70
2022/08/14 18:50:16;;;;;;;0.20;0.00;;;28.80;99.90;;;;;;26164513;22;20213;-66
2022/08/14 19:00:57;;;;;;;0.20;0.00;;;28.60;99.90;;;;;;26139173;22;20379;-68
2022/08/14 19:11:03;;;;;;;0.20;0.10;;;28.40;99.90;;;;;;26169967;22;20254;-69
2022/08/14 19:21:23;;;;;;;0.20;0.00;;;28.20;99.90;;;;;;26169205;22;20171;-69
2022/08/14 19:31:38;;;;;;;0.20;0.00;;;28.20;99.90;;;;;;26144612;22;20187;-70
2022/08/14 19:41:59;;;;;;;0.20;0.00;;;28.10;99.90;;;;;;26170540;22;20172;-69
2022/08/14 19:52:23;;;;;;;0.20;0.00;;;28.10;99.90;;;;;;26167767;22;20255;-69
2022/08/14 20:02:29;;;;;;;0.20;0.00;;;27.80;99.90;;;;;;26144555;22;20164;-69
2022/08/14 20:12:39;;;;;;;0.20;0.00;;;27.50;99.90;;;;;;26168364;22;20210;-69
2022/08/14 20:23:09;;;;;;;0.20;0.00;;;27.60;99.90;;;;;;26170761;22;20182;-69
2022/08/14 20:33:15;;;;;;;0.20;0.00;;;27.50;99.90;;;;;;26142838;22;20187;-68
2022/08/14 20:53:56;;;;;;;0.20;0.00;;;27.40;99.90;;;;;;26169054;22;20238;-69
2022/08/14 21:04:03;;;;;;;0.20;0.03;;;27.40;99.90;;;;;;26141870;22;20187;-69
2022/08/14 21:14:14;;;;;;;0.20;0.00;;;27.10;99.90;;;;;;26136044;22;20225;-68
2022/08/14 21:24:32;;;;;;;0.20;0.00;;;27.30;99.90;;;;;;26138741;22;20160;-69
2022/08/14 21:34:49;;;;;;;0.20;0.00;;;27.10;99.90;;;;;;26136664;22;20198;-69
2022/08/14 21:44:59;;;;;;;0.20;0.00;;;27.20;99.90;;;;;;26167722;22;20190;-69
2022/08/14 21:55:07;;;;;;;0.20;0.00;;;27.20;99.90;;;;;;26138933;22;20263;-68
2022/08/14 22:05:17;;;;;;;0.20;0.00;;;27.10;99.90;;;;;;26164446;22;20250;-68
2022/08/14 22:15:21;;;;;;;0.20;0.05;;;27.00;99.90;;;;;;26166901;22;20196;-69
2022/08/14 22:25:26;;;;;;;0.20;0.00;;;26.90;99.90;;;;;;26168451;22;20163;-68
2022/08/14 22:35:36;;;;;;;0.20;0.00;;;26.80;99.90;;;;;;26176212;22;20189;-68
2022/08/14 22:45:42;;;;;;;0.20;0.00;;;26.80;99.90;;;;;;26171334;22;20176;-69
2022/08/14 22:55:58;;;;;;;0.20;0.10;;;26.60;99.90;;;;;;26174129;22;20217;-67
2022/08/14 23:06:07;;;;;;;0.20;0.00;;;26.50;99.90;;;;;;26173982;22;20195;-70
2022/08/14 23:16:31;;;;;;;0.20;0.00;;;26.30;99.90;;;;;;26123314;22;20199;-69
2022/08/14 23:26:36;;;;;;;0.20;0.00;;;25.90;99.90;;;;;;26147409;22;20175;-68
2022/08/14 23:36:57;;;;;;;0.20;0.00;;;25.80;99.90;;;;;;26174902;22;20233;-70
2022/08/14 23:47:09;;;;;;;0.20;0.00;;;25.90;99.90;;;;;;26174578;22;20155;-69
2022/08/14 23:57:29;;;;;;;0.20;0.10;;;25.70;99.90;;;;;;26175181;22;20188;-68
